createdAt,value
2023-01-13T00:02:17.491Z,100113.31
2023-01-13T00:04:44.052Z,100124.00
2023-01-13T00:07:10.818Z,100114.09
2023-01-13T00:09:37.330Z,100111.66
2023-01-13T00:12:05.753Z,100104.59
2023-01-13T00:14:36.233Z,100112.69
2023-01-13T00:17:04.422Z,100092.25
2023-01-13T00:19:30.955Z,100085.56
2023-01-13T00:21:57.859Z,100097.28
2023-01-13T00:24:24.607Z,100084.88
2023-01-13T00:26:52.748Z,100082.44
2023-01-13T00:29:19.291Z,100075.31
2023-01-13T00:31:45.949Z,100081.19
2023-01-13T00:34:12.736Z,100075.16
2023-01-13T00:36:39.256Z,100069.25
2023-01-13T00:39:05.786Z,100073.72
2023-01-13T00:41:52.273Z,100096.19
2023-01-13T00:44:18.924Z,100096.81
2023-01-13T00:46:45.509Z,100093.38
2023-01-13T00:49:12.265Z,100082.03
2023-01-13T00:51:38.823Z,100091.13
2023-01-13T00:54:05.393Z,100085.69
2023-01-13T00:56:40.264Z,100074.34
2023-01-13T00:59:08.289Z,100080.19
2023-01-13T01:01:34.878Z,100072.50
2023-01-13T01:04:01.529Z,100090.09
2023-01-13T01:06:28.375Z,100091.28
2023-01-13T01:08:55.760Z,100099.56
2023-01-13T01:11:28.732Z,100078.13
2023-01-13T01:13:58.003Z,100091.50
2023-01-13T01:16:26.500Z,100079.13
2023-01-13T01:18:54.551Z,100054.66
2023-01-13T01:21:23.087Z,100060.91
2023-01-13T01:23:49.978Z,100074.28
2023-01-13T01:26:18.754Z,100088.63
2023-01-13T01:28:46.214Z,100104.63
2023-01-13T01:31:15.897Z,100107.66
2023-01-13T01:33:42.516Z,100111.28
2023-01-13T01:36:11.352Z,100106.03
2023-01-13T01:38:38.137Z,100086.00
2023-01-13T01:41:05.275Z,100101.53
2023-01-13T01:44:24.252Z,100074.63
2023-01-13T01:46:52.131Z,100072.59
2023-01-13T01:49:35.452Z,100074.00
2023-01-13T01:52:06.533Z,100108.22
2023-01-13T01:54:42.599Z,100112.66
2023-01-13T01:57:14.018Z,100119.75
2023-01-13T01:59:41.795Z,100110.03
2023-01-13T02:02:08.852Z,100108.38
2023-01-13T02:04:40.932Z,100118.13
2023-01-13T02:07:08.134Z,100107.38
2023-01-13T02:09:36.746Z,100093.41
2023-01-13T02:12:22.092Z,100111.16
2023-01-13T02:14:49.010Z,100102.66
2023-01-13T02:17:21.412Z,100104.03
2023-01-13T02:20:20.323Z,100097.97
2023-01-13T02:22:58.211Z,100100.75
2023-01-13T02:25:57.101Z,100102.75
2023-01-13T02:28:35.274Z,100103.94
2023-01-13T02:31:33.987Z,100106.34
2023-01-13T02:34:31.946Z,100108.50
2023-01-13T02:37:05.111Z,100114.72
2023-01-13T02:39:55.802Z,100112.97
2023-01-13T02:42:43.729Z,100107.88
2023-01-13T02:45:19.363Z,100107.19
2023-01-13T02:47:50.369Z,100113.16
2023-01-13T02:50:20.801Z,100105.47
2023-01-13T02:52:58.371Z,100110.53
2023-01-13T02:55:31.139Z,100104.03
2023-01-13T02:58:01.101Z,100100.53
2023-01-13T03:00:28.179Z,100095.16
2023-01-13T03:02:54.947Z,100099.44
2023-01-13T03:05:21.388Z,100094.13
2023-01-13T03:08:01.012Z,100095.09
2023-01-13T03:10:32.574Z,100089.63
2023-01-13T03:13:23.818Z,100099.31
2023-01-13T03:16:08.497Z,100081.91
2023-01-13T03:18:45.201Z,100090.97
2023-01-13T03:21:34.267Z,100082.47
2023-01-13T03:24:17.276Z,100069.75
2023-01-13T03:27:02.419Z,100065.88
2023-01-13T03:29:39.777Z,100078.94
2023-01-13T03:32:22.951Z,100096.84
2023-01-13T03:34:53.984Z,100094.41
2023-01-13T03:37:26.313Z,100098.84
2023-01-13T03:40:00.204Z,100100.03
2023-01-13T03:42:30.355Z,100101.47
2023-01-13T03:45:02.847Z,100102.03
2023-01-13T03:47:41.665Z,100100.56
2023-01-13T03:50:15.926Z,100100.78
2023-01-13T03:53:10.311Z,100098.44
2023-01-13T03:55:43.636Z,100089.28
2023-01-13T03:58:16.357Z,100106.59
2023-01-13T04:00:50.558Z,100103.69
2023-01-13T04:03:25.793Z,100093.19
2023-01-13T04:05:59.244Z,100090.41
2023-01-13T04:08:28.006Z,100095.56
2023-01-13T04:11:09.999Z,100097.56
2023-01-13T04:13:40.077Z,100093.66
2023-01-13T04:16:08.126Z,100107.34
2023-01-13T04:18:37.994Z,100107.78
2023-01-13T04:21:05.334Z,100104.97
2023-01-13T04:23:32.623Z,100113.66
2023-01-13T04:25:59.582Z,100107.59
2023-01-13T04:28:26.781Z,100107.50
2023-01-13T04:30:53.349Z,100097.41
2023-01-13T04:33:20.495Z,100098.81
2023-01-13T04:35:48.092Z,100099.84
2023-01-13T04:38:19.378Z,100096.78
2023-01-13T04:40:46.054Z,100096.41
2023-01-13T04:43:13.214Z,100101.84
2023-01-13T04:45:39.653Z,100102.28
2023-01-13T04:48:06.396Z,100107.09
2023-01-13T04:50:33.044Z,100114.41
2023-01-13T04:53:01.131Z,100110.13
2023-01-13T04:55:28.063Z,100100.75
2023-01-13T04:57:54.599Z,100105.59
2023-01-13T05:00:23.000Z,100113.66
2023-01-13T05:02:51.188Z,100112.03
2023-01-13T05:05:18.692Z,100117.81
2023-01-13T05:07:45.490Z,100095.31
2023-01-13T05:10:12.757Z,100081.91
2023-01-13T05:12:57.338Z,100087.72
2023-01-13T05:15:42.473Z,100091.63
2023-01-13T05:18:09.149Z,100084.72
2023-01-13T05:20:35.820Z,100091.97
2023-01-13T05:23:21.523Z,100099.84
2023-01-13T05:25:48.946Z,100100.66
2023-01-13T05:28:15.642Z,100095.84
2023-01-13T05:30:44.528Z,100107.16
2023-01-13T05:33:13.049Z,100098.28
2023-01-13T05:35:44.779Z,100100.28
2023-01-13T05:38:12.239Z,100102.53
2023-01-13T05:40:59.632Z,100105.16
2023-01-13T05:43:27.047Z,100124.97
2023-01-13T05:45:56.612Z,100114.91
2023-01-13T05:48:25.796Z,100113.75
2023-01-13T05:50:54.143Z,100107.50
2023-01-13T05:53:21.756Z,100108.59
2023-01-13T05:55:49.116Z,100107.50
2023-01-13T05:58:17.544Z,100115.00
2023-01-13T06:00:44.447Z,100124.69
2023-01-13T06:03:11.537Z,100121.44
2023-01-13T06:05:38.585Z,100134.94
2023-01-13T06:08:06.720Z,100131.91
2023-01-13T06:10:33.598Z,100137.56
2023-01-13T06:13:00.179Z,100125.69
2023-01-13T06:15:26.635Z,100129.50
2023-01-13T06:17:53.287Z,100130.94
2023-01-13T06:20:20.348Z,100143.22
2023-01-13T06:22:49.861Z,100154.56
2023-01-13T06:25:32.005Z,100140.81
2023-01-13T06:28:00.570Z,100147.03
2023-01-13T06:30:31.146Z,100147.94
2023-01-13T06:33:01.085Z,100153.91
2023-01-13T06:35:32.122Z,100133.91
2023-01-13T06:38:01.187Z,100138.97
2023-01-13T06:40:27.851Z,100148.59
2023-01-13T06:43:16.430Z,100149.13
2023-01-13T06:45:43.181Z,100143.88
2023-01-13T06:48:09.549Z,100140.25
2023-01-13T06:50:35.940Z,100149.22
2023-01-13T06:53:02.437Z,100146.22
2023-01-13T06:55:28.801Z,100154.56
2023-01-13T06:57:57.419Z,100144.06
2023-01-13T07:00:25.338Z,100146.41
2023-01-13T07:02:52.074Z,100149.94
2023-01-13T07:05:19.514Z,100150.31
2023-01-13T07:07:45.943Z,100151.19
2023-01-13T07:10:22.230Z,100156.34
2023-01-13T07:13:08.640Z,100166.94
2023-01-13T07:15:35.621Z,100164.78
2023-01-13T07:18:02.516Z,100169.19
2023-01-13T07:20:30.352Z,100166.94
2023-01-13T07:22:57.337Z,100152.19
2023-01-13T07:25:24.056Z,100166.38
2023-01-13T07:27:50.450Z,100165.94
2023-01-13T07:30:17.178Z,100167.66
2023-01-13T07:32:43.591Z,100167.50
2023-01-13T07:35:09.957Z,100167.13
2023-01-13T07:37:39.277Z,100189.25
2023-01-13T07:40:06.398Z,100178.97
2023-01-13T07:42:51.429Z,100179.94
2023-01-13T07:45:17.825Z,100185.84
2023-01-13T07:47:44.169Z,100190.00
2023-01-13T07:50:11.087Z,100193.63
2023-01-13T07:52:37.452Z,100194.88
2023-01-13T07:55:04.071Z,100194.34
2023-01-13T07:57:30.442Z,100193.16
2023-01-13T07:59:56.895Z,100196.44
2023-01-13T08:02:23.534Z,100208.88
2023-01-13T08:04:50.091Z,100199.84
2023-01-13T08:07:16.450Z,100195.44
2023-01-13T08:09:42.837Z,100195.72
2023-01-13T08:12:27.937Z,100190.00
2023-01-13T08:14:54.587Z,100199.16
2023-01-13T08:17:21.022Z,100206.94
2023-01-13T08:19:47.679Z,100197.41
2023-01-13T08:22:14.089Z,100212.91
2023-01-13T08:24:40.491Z,100210.28
2023-01-13T08:27:06.973Z,100216.59
2023-01-13T08:29:33.464Z,100221.03
2023-01-13T08:31:59.932Z,100225.28
2023-01-13T08:34:26.334Z,100229.91
2023-01-13T08:36:52.744Z,100225.09
2023-01-13T08:39:19.109Z,100225.09
2023-01-13T08:41:58.543Z,100224.28
2023-01-13T08:44:30.336Z,100236.41
2023-01-13T08:46:57.465Z,100227.53
2023-01-13T08:49:25.156Z,100224.56
2023-01-13T08:51:52.408Z,100228.81
2023-01-13T08:54:19.577Z,100237.13
2023-01-13T08:56:47.050Z,100242.56
2023-01-13T08:59:18.891Z,100247.00
2023-01-13T09:01:46.124Z,100253.94
2023-01-13T09:04:19.351Z,100267.44
2023-01-13T09:06:47.358Z,100259.69
2023-01-13T09:09:13.980Z,100257.34
2023-01-13T09:12:08.378Z,100256.69
2023-01-13T09:14:36.589Z,100251.44
2023-01-13T09:17:03.473Z,100255.41
2023-01-13T09:19:30.545Z,100257.69
2023-01-13T09:21:57.702Z,100255.34
2023-01-13T09:24:24.895Z,100259.59
2023-01-13T09:26:52.024Z,100247.94
2023-01-13T09:29:19.023Z,100251.81
2023-01-13T09:31:45.498Z,100255.72
2023-01-13T09:34:36.714Z,100250.75
2023-01-13T09:37:04.957Z,100240.41
2023-01-13T09:39:33.085Z,100255.06
2023-01-13T09:42:25.585Z,100255.97
2023-01-13T09:44:55.724Z,100261.09
2023-01-13T09:47:29.069Z,100262.34
2023-01-13T09:50:02.684Z,100269.06
2023-01-13T09:52:29.397Z,100278.84
2023-01-13T09:55:03.028Z,100282.34
2023-01-13T09:57:34.417Z,100284.53
2023-01-13T10:00:00.965Z,100290.06
2023-01-13T10:02:36.446Z,100290.84
2023-01-13T10:05:12.924Z,100285.91
2023-01-13T10:07:57.645Z,100277.22
2023-01-13T10:10:48.568Z,100276.75
2023-01-13T10:13:30.568Z,100288.44
2023-01-13T10:16:30.935Z,100298.19
2023-01-13T10:19:05.860Z,100278.50
2023-01-13T10:21:47.518Z,100274.47
2023-01-13T10:24:43.450Z,100267.81
2023-01-13T10:27:24.029Z,100267.22
2023-01-13T10:29:50.441Z,100280.34
2023-01-13T10:32:16.793Z,100289.63
2023-01-13T10:34:51.102Z,100290.72
2023-01-13T10:37:23.300Z,100279.03
2023-01-13T10:39:53.837Z,100286.28
2023-01-13T10:42:22.774Z,100292.88
2023-01-13T10:44:54.150Z,100289.41
2023-01-13T10:47:38.484Z,100295.34
2023-01-13T10:50:10.847Z,100297.41
2023-01-13T10:52:54.954Z,100291.59
2023-01-13T10:55:30.260Z,100296.16
2023-01-13T10:57:56.834Z,100301.41
2023-01-13T11:00:33.712Z,100299.53
2023-01-13T11:03:41.437Z,100304.00
2023-01-13T11:06:09.444Z,100298.03
2023-01-13T11:08:47.860Z,100302.47
2023-01-13T11:11:39.482Z,100304.06
2023-01-13T11:14:33.115Z,100291.50
2023-01-13T11:17:10.381Z,100304.00
2023-01-13T11:19:42.578Z,100309.47
2023-01-13T11:22:16.005Z,100305.72
2023-01-13T11:24:53.073Z,100296.19
2023-01-13T11:27:41.388Z,100321.78
2023-01-13T11:30:40.139Z,100307.13
2023-01-13T11:33:29.286Z,100302.69
2023-01-13T11:35:55.546Z,100320.03
2023-01-13T11:38:40.441Z,100322.66
2023-01-13T11:41:16.337Z,100322.22
2023-01-13T11:43:48.015Z,100319.00
2023-01-13T11:46:14.490Z,100323.00
2023-01-13T11:48:43.097Z,100318.38
2023-01-13T11:51:16.141Z,100314.66
2023-01-13T11:54:02.690Z,100326.47
2023-01-13T11:57:06.554Z,100312.50
2023-01-13T11:59:48.233Z,100326.84
2023-01-13T12:02:29.880Z,100309.56
2023-01-13T12:05:14.711Z,100323.78
2023-01-13T12:07:59.849Z,100322.97
2023-01-13T12:10:49.340Z,100305.38
2023-01-13T12:13:53.240Z,100300.84
2023-01-13T12:16:26.905Z,100308.72
2023-01-13T12:19:32.376Z,100309.75
2023-01-13T12:22:01.731Z,100310.09
2023-01-13T12:24:30.699Z,100321.44
2023-01-13T12:27:11.414Z,100307.13
2023-01-13T12:29:38.847Z,100307.13
2023-01-13T12:32:11.609Z,100333.69
2023-01-13T12:35:06.111Z,100344.22
2023-01-13T12:37:45.795Z,100359.47
2023-01-13T12:40:42.575Z,100362.53
2023-01-13T12:43:40.005Z,100367.16
2023-01-13T12:46:18.475Z,100363.72
2023-01-13T12:48:57.200Z,100377.84
2023-01-13T12:51:27.762Z,100381.25
2023-01-13T12:53:56.241Z,100384.63
2023-01-13T12:56:36.538Z,100387.25
2023-01-13T12:59:32.372Z,100387.06
2023-01-13T13:02:11.241Z,100396.13
2023-01-13T13:04:49.455Z,100423.63
2023-01-13T13:07:23.444Z,100404.50
2023-01-13T13:09:55.221Z,100399.72
2023-01-13T13:12:49.793Z,100406.44
2023-01-13T13:15:24.928Z,100402.81
2023-01-13T13:18:03.545Z,100397.56
2023-01-13T13:21:04.948Z,100403.88
2023-01-13T13:23:44.297Z,100414.22
2023-01-13T13:26:20.257Z,100407.31
2023-01-13T13:28:59.627Z,100420.78
2023-01-13T13:31:44.154Z,100430.50
2023-01-13T13:34:55.349Z,100422.97
2023-01-13T13:37:31.355Z,100416.72
2023-01-13T13:40:16.738Z,100424.13
2023-01-13T13:43:07.599Z,100430.38
2023-01-13T13:45:52.717Z,100433.78
2023-01-13T13:48:25.165Z,100438.59
2023-01-13T13:51:01.741Z,100435.44
2023-01-13T13:53:41.944Z,100439.53
2023-01-13T13:56:18.106Z,100435.44
2023-01-13T13:58:47.958Z,100436.41
2023-01-13T14:01:24.404Z,100445.59
2023-01-13T14:04:04.483Z,100453.75
2023-01-13T14:06:32.773Z,100458.00
2023-01-13T14:08:59.155Z,100469.97
2023-01-13T14:11:32.297Z,100470.31
2023-01-13T14:14:06.871Z,100479.00
2023-01-13T14:16:36.201Z,100484.25
2023-01-13T14:19:02.898Z,100484.44
2023-01-13T14:21:30.428Z,100485.75
2023-01-13T14:24:00.192Z,100473.84
2023-01-13T14:26:30.522Z,100479.41
2023-01-13T14:28:59.492Z,100474.47
2023-01-13T14:31:26.468Z,100481.97
2023-01-13T14:33:55.619Z,100496.44
2023-01-13T14:36:37.663Z,100505.25
2023-01-13T14:39:07.111Z,100502.00
2023-01-13T14:41:33.462Z,100514.19
2023-01-13T14:44:03.883Z,100515.16
2023-01-13T14:46:37.388Z,100529.94
2023-01-13T14:49:04.336Z,100536.81
2023-01-13T14:51:31.462Z,100544.69
2023-01-13T14:53:58.431Z,100546.00
2023-01-13T14:56:46.714Z,100555.03
2023-01-13T14:59:40.305Z,100549.47
2023-01-13T15:02:24.796Z,100555.47
2023-01-13T15:04:57.659Z,100555.59
2023-01-13T15:07:33.234Z,100559.38
2023-01-13T15:10:02.336Z,100572.03
2023-01-13T15:12:39.376Z,100586.97
2023-01-13T15:15:21.002Z,100576.84
2023-01-13T15:17:47.422Z,100585.34
2023-01-13T15:20:15.449Z,100600.28
2023-01-13T15:22:41.943Z,100603.41
2023-01-13T15:25:09.566Z,100597.72
2023-01-13T15:27:37.223Z,100612.63
2023-01-13T15:30:15.487Z,100609.00
2023-01-13T15:32:42.655Z,100620.31
2023-01-13T15:35:16.809Z,100624.22
2023-01-13T15:37:44.445Z,100634.44
2023-01-13T15:40:25.796Z,100640.19
2023-01-13T15:43:10.825Z,100650.50
2023-01-13T15:45:56.628Z,100652.28
2023-01-13T15:48:24.641Z,100650.53
2023-01-13T15:50:51.312Z,100657.91
2023-01-13T15:53:18.028Z,100651.66
2023-01-13T15:55:49.311Z,100659.69
2023-01-13T15:58:18.985Z,100654.94
2023-01-13T16:00:45.382Z,100659.19
2023-01-13T16:03:13.841Z,100668.72
2023-01-13T16:05:41.385Z,100669.03
2023-01-13T16:08:19.145Z,100679.53
2023-01-13T16:10:45.967Z,100679.22
2023-01-13T16:13:13.525Z,100671.50
2023-01-13T16:15:43.583Z,100680.50
2023-01-13T16:18:17.496Z,100692.03
2023-01-13T16:20:44.218Z,100686.91
2023-01-13T16:23:11.286Z,100688.75
2023-01-13T16:25:38.221Z,100688.75
2023-01-13T16:28:04.754Z,100696.63
2023-01-13T16:30:34.582Z,100693.81
2023-01-13T16:33:02.484Z,100697.72
2023-01-13T16:35:29.337Z,100703.66
2023-01-13T16:37:58.432Z,100715.78
2023-01-13T16:40:34.617Z,100709.88
2023-01-13T16:43:03.444Z,100716.13
2023-01-13T16:45:31.154Z,100713.34
2023-01-13T16:47:57.551Z,100729.75
2023-01-13T16:50:40.814Z,100729.25
2023-01-13T16:53:11.574Z,100741.88
2023-01-13T16:55:39.958Z,100749.09
2023-01-13T16:58:09.775Z,100747.78
2023-01-13T17:00:36.148Z,100753.03
2023-01-13T17:03:02.738Z,100756.00
2023-01-13T17:05:29.376Z,100758.44
2023-01-13T17:07:57.011Z,100762.38
2023-01-13T17:10:25.081Z,100768.63
2023-01-13T17:12:51.529Z,100767.78
2023-01-13T17:15:19.426Z,100773.88
2023-01-13T17:17:48.630Z,100769.78
2023-01-13T17:20:16.207Z,100777.47
2023-01-13T17:22:45.614Z,100771.56
2023-01-13T17:25:14.572Z,100794.69
2023-01-13T17:27:42.017Z,100793.22
2023-01-13T17:30:10.471Z,100800.13
2023-01-13T17:32:36.801Z,100808.63
2023-01-13T17:35:03.468Z,100791.09
2023-01-13T17:37:29.885Z,100802.56
2023-01-13T17:39:56.211Z,100806.19
2023-01-13T17:42:24.904Z,100809.78
2023-01-13T17:44:51.296Z,100794.03
2023-01-13T17:47:17.958Z,100808.31
2023-01-13T17:49:44.453Z,100810.75
2023-01-13T17:52:10.909Z,100797.97
2023-01-13T17:54:42.859Z,100811.75
2023-01-13T17:57:09.919Z,100807.81
2023-01-13T17:59:36.350Z,100818.31
2023-01-13T18:02:03.129Z,100816.97
2023-01-13T18:04:30.829Z,100832.56
2023-01-13T18:06:57.235Z,100830.94
2023-01-13T18:09:23.676Z,100836.00
2023-01-13T18:11:50.256Z,100835.03
2023-01-13T18:14:16.790Z,100835.34
2023-01-13T18:16:43.526Z,100837.19
2023-01-13T18:19:29.461Z,100823.56
2023-01-13T18:22:14.199Z,100833.06
2023-01-13T18:24:59.502Z,100840.94
2023-01-13T18:27:33.235Z,100840.25
2023-01-13T18:30:01.511Z,100850.75
2023-01-13T18:32:32.796Z,100842.88
2023-01-13T18:35:05.973Z,100857.84
2023-01-13T18:37:35.626Z,100848.00
2023-01-13T18:40:02.237Z,100855.69
2023-01-13T18:42:46.952Z,100846.00
2023-01-13T18:45:13.464Z,100862.56
2023-01-13T18:47:42.126Z,100859.63
2023-01-13T18:50:09.614Z,100862.59
2023-01-13T18:52:36.330Z,100864.56
2023-01-13T18:55:02.835Z,100864.38
2023-01-13T18:57:29.380Z,100874.38
2023-01-13T18:59:57.034Z,100875.38
2023-01-13T19:02:26.439Z,100876.03
2023-01-13T19:04:54.031Z,100880.47
2023-01-13T19:07:29.136Z,100882.91
2023-01-13T19:09:55.885Z,100873.56
2023-01-13T19:12:31.114Z,100882.91
2023-01-13T19:14:58.403Z,100889.31
2023-01-13T19:17:26.888Z,100887.16
2023-01-13T19:19:55.738Z,100900.00
2023-01-13T19:22:29.652Z,100899.16
2023-01-13T19:24:57.430Z,100903.94
2023-01-13T19:27:24.870Z,100901.44
2023-01-13T19:29:53.969Z,100905.91
2023-01-13T19:32:22.000Z,100903.59
2023-01-13T19:34:51.397Z,100903.25
2023-01-13T19:37:18.911Z,100917.88
2023-01-13T19:39:45.546Z,100922.97
2023-01-13T19:42:31.734Z,100932.63
2023-01-13T19:45:16.734Z,100933.47
2023-01-13T19:47:45.818Z,100940.34
2023-01-13T19:50:13.852Z,100942.66
2023-01-13T19:52:41.503Z,100941.69
2023-01-13T19:55:08.198Z,100954.16
2023-01-13T19:57:34.569Z,100950.19
2023-01-13T20:00:00.981Z,100968.44
2023-01-13T20:02:28.176Z,100963.97
2023-01-13T20:04:56.077Z,100958.41
2023-01-13T20:07:24.303Z,100964.66
2023-01-13T20:09:52.160Z,100968.06
2023-01-13T20:12:20.024Z,100977.59
2023-01-13T20:14:47.706Z,100980.34
2023-01-13T20:17:15.661Z,100985.28
2023-01-13T20:19:42.309Z,100981.19
2023-01-13T20:22:09.095Z,100979.88
2023-01-13T20:24:35.547Z,100983.63
2023-01-13T20:27:02.154Z,100984.47
2023-01-13T20:29:28.841Z,100982.31
2023-01-13T20:31:55.813Z,100989.84
2023-01-13T20:34:22.976Z,100981.97
2023-01-13T20:36:49.882Z,100993.63
2023-01-13T20:39:23.415Z,100996.25
2023-01-13T20:42:08.636Z,101003.81
2023-01-13T20:44:35.264Z,101008.22
2023-01-13T20:47:02.722Z,101002.66
2023-01-13T20:49:30.178Z,100996.75
2023-01-13T20:51:57.538Z,100994.44
2023-01-13T20:54:24.463Z,101004.28
2023-01-13T20:56:51.033Z,101012.47
2023-01-13T20:59:17.534Z,101014.28
2023-01-13T21:01:44.076Z,101018.69
2023-01-13T21:04:10.604Z,101024.91
2023-01-13T21:06:37.028Z,101033.78
2023-01-13T21:09:03.615Z,101027.53
2023-01-13T21:11:48.662Z,101031.94
2023-01-13T21:14:44.232Z,101025.91
2023-01-13T21:17:31.530Z,101039.16
2023-01-13T21:19:57.994Z,101036.53
2023-01-13T21:22:24.952Z,101035.88
2023-01-13T21:24:51.364Z,101040.28
2023-01-13T21:27:17.737Z,101030.97
2023-01-13T21:29:44.539Z,101031.78
2023-01-13T21:32:11.181Z,101037.00
2023-01-13T21:34:37.612Z,101041.59
2023-01-13T21:37:04.117Z,101038.97
2023-01-13T21:39:30.505Z,101042.25
2023-01-13T21:42:15.620Z,101045.72
2023-01-13T21:45:00.382Z,101048.34
2023-01-13T21:47:45.195Z,101068.03
2023-01-13T21:50:13.488Z,101053.59
2023-01-13T21:52:42.951Z,101056.53
2023-01-13T21:55:29.230Z,101061.63
2023-01-13T21:58:13.033Z,101063.41
2023-01-13T22:00:41.901Z,101067.81
2023-01-13T22:03:09.233Z,101073.41
2023-01-13T22:05:35.974Z,101077.16
2023-01-13T22:08:02.418Z,101071.13
2023-01-13T22:10:30.586Z,101083.91
2023-01-13T22:13:21.482Z,101083.91
2023-01-13T22:15:47.916Z,101080.44
2023-01-13T22:18:14.273Z,101081.41
2023-01-13T22:20:41.977Z,101086.34
2023-01-13T22:23:08.404Z,101082.88
2023-01-13T22:25:34.806Z,101092.03
2023-01-13T22:28:05.893Z,101092.88
2023-01-13T22:30:33.071Z,101096.00
2023-01-13T22:33:00.181Z,101092.53
2023-01-13T22:35:26.715Z,101104.69
2023-01-13T22:37:53.057Z,101104.53
2023-01-13T22:40:19.572Z,101101.91
2023-01-13T22:42:45.931Z,101105.66
2023-01-13T22:45:13.864Z,101117.81
2023-01-13T22:47:40.690Z,101121.38
2023-01-13T22:50:08.166Z,101132.72
2023-01-13T22:52:35.522Z,101133.66
2023-01-13T22:55:02.218Z,101130.38
2023-01-13T22:57:46.695Z,101138.25
2023-01-13T23:00:14.982Z,101145.00
2023-01-13T23:02:41.521Z,101128.75
2023-01-13T23:05:08.254Z,101129.41
2023-01-13T23:07:35.596Z,101133.84
2023-01-13T23:10:02.603Z,101135.34
2023-01-13T23:12:29.021Z,101131.75
2023-01-13T23:14:55.441Z,101140.06
2023-01-13T23:17:21.846Z,101147.13
2023-01-13T23:19:48.188Z,101140.22
2023-01-13T23:22:15.585Z,101142.84
2023-01-13T23:24:41.954Z,101149.06
2023-01-13T23:27:08.314Z,101148.91
2023-01-13T23:29:34.691Z,101157.78
2023-01-13T23:32:01.098Z,101160.06
2023-01-13T23:34:27.702Z,101166.13
2023-01-13T23:36:54.115Z,101176.13
2023-01-13T23:39:20.491Z,101175.50
2023-01-13T23:41:46.843Z,101184.31
2023-01-13T23:44:13.171Z,101181.56
2023-01-13T23:46:39.726Z,101174.66
2023-01-13T23:49:06.149Z,101177.75
2023-01-13T23:51:33.096Z,101169.06
2023-01-13T23:53:59.858Z,101168.38
2023-01-13T23:56:29.252Z,101164.81
2023-01-13T23:58:55.917Z,101156.94
